Time;durP1;ratioP1;P1;durP2;ratioP2;P2;SDS_P1;SDS_P2;PMS_P1;PMS_P2;Temp;Humidity;BMP_temperature;BMP_pressure;BME280_temperature;BME280_humidity;BME280_pressure;Samples;Min_cycle;Max_cycle;Signal;HPM_P1;HPM_P2
2023/01/23 00:00:23;;;;;;;96.63;37.08;;;;;;;;;;6250778;28;20060;-59
2023/01/23 00:03:44;;;;;;;83.97;34.25;;;;;;;;;;6256088;28;20044;-63
2023/01/23 00:06:45;;;;;;;96.85;36.13;;;;;;;;;;6282421;28;20068;-59
2023/01/23 00:09:46;;;;;;;92.82;35.30;;;;;;;;;;6292796;28;20150;-58
2023/01/23 00:12:49;;;;;;;89.65;36.05;;;;;;;;;;6279856;28;20041;-65
2023/01/23 00:15:50;;;;;;;96.72;38.15;;;;;;;;;;6288577;28;20045;-58
2023/01/23 00:18:51;;;;;;;94.32;36.28;;;;;;;;;;6291732;28;20040;-58
2023/01/23 00:21:52;;;;;;;96.40;36.13;;;;;;;;;;6280196;28;20049;-63
2023/01/23 00:24:52;;;;;;;93.00;36.83;;;;;;;;;;6286884;28;20055;-58
2023/01/23 00:27:53;;;;;;;92.68;37.17;;;;;;;;;;6292030;28;20127;-58
2023/01/23 00:31:01;;;;;;;89.13;32.55;;;;;;;;;;6275301;28;20098;-58
2023/01/23 00:34:05;;;;;;;89.85;32.30;;;;;;;;;;6289425;28;20410;-59
2023/01/23 00:37:06;;;;;;;78.88;29.30;;;;;;;;;;6292044;28;20112;-65
2023/01/23 00:40:07;;;;;;;82.75;30.70;;;;;;;;;;6280074;28;20127;-59
2023/01/23 00:43:08;;;;;;;84.65;32.83;;;;;;;;;;6284711;28;20041;-61
2023/01/23 00:46:09;;;;;;;83.40;30.85;;;;;;;;;;6274313;28;20052;-59
2023/01/23 00:49:09;;;;;;;81.72;30.85;;;;;;;;;;6276325;28;20408;-57
2023/01/23 00:52:10;;;;;;;90.00;33.67;;;;;;;;;;6263955;28;20080;-56
2023/01/23 00:55:10;;;;;;;86.03;33.55;;;;;;;;;;6273588;28;20116;-57
2023/01/23 00:58:11;;;;;;;87.07;31.88;;;;;;;;;;6286954;28;20049;-57
2023/01/23 01:01:13;;;;;;;78.57;28.10;;;;;;;;;;6285782;28;20089;-61
2023/01/23 01:04:14;;;;;;;75.00;28.55;;;;;;;;;;6278570;28;20288;-59
2023/01/23 01:07:15;;;;;;;66.57;25.20;;;;;;;;;;6287597;28;20053;-57
2023/01/23 01:10:15;;;;;;;66.85;26.38;;;;;;;;;;6286402;28;20051;-57
2023/01/23 01:13:20;;;;;;;68.18;25.65;;;;;;;;;;6290365;28;20048;-57
2023/01/23 01:16:23;;;;;;;67.55;24.75;;;;;;;;;;6291064;28;20106;-57
2023/01/23 01:19:23;;;;;;;61.95;22.42;;;;;;;;;;6291282;28;20450;-57
2023/01/23 01:22:24;;;;;;;68.47;23.25;;;;;;;;;;6290135;28;20049;-57
2023/01/23 01:25:25;;;;;;;63.67;23.35;;;;;;;;;;6285305;28;20057;-57
2023/01/23 01:28:29;;;;;;;74.75;25.60;;;;;;;;;;6272597;28;20036;-62
2023/01/23 01:31:29;;;;;;;67.05;26.35;;;;;;;;;;6285084;28;20396;-58
2023/01/23 01:34:30;;;;;;;67.88;26.15;;;;;;;;;;6287552;28;20072;-55
2023/01/23 01:37:35;;;;;;;67.53;24.50;;;;;;;;;;6295229;28;20519;-57
2023/01/23 01:40:36;;;;;;;66.05;21.17;;;;;;;;;;6295790;28;20051;-56
2023/01/23 01:43:37;;;;;;;62.63;22.58;;;;;;;;;;6294763;28;20534;-56
2023/01/23 01:46:37;;;;;;;66.00;22.95;;;;;;;;;;6295732;28;20048;-56
2023/01/23 01:49:38;;;;;;;61.88;21.73;;;;;;;;;;6287107;28;20057;-56
2023/01/23 01:52:39;;;;;;;58.95;21.05;;;;;;;;;;6285545;28;20048;-58
2023/01/23 01:55:40;;;;;;;62.40;20.33;;;;;;;;;;6295447;28;20532;-56
2023/01/23 01:58:43;;;;;;;63.80;22.75;;;;;;;;;;6291557;28;20094;-57
2023/01/23 02:01:48;;;;;;;63.25;21.15;;;;;;;;;;6286677;28;20055;-57
2023/01/23 02:04:53;;;;;;;62.10;21.67;;;;;;;;;;6294950;28;20055;-57
2023/01/23 02:07:59;;;;;;;55.67;20.48;;;;;;;;;;6286718;28;20057;-55
2023/01/23 02:11:04;;;;;;;61.95;20.88;;;;;;;;;;6292138;28;20053;-58
2023/01/23 02:14:04;;;;;;;52.53;18.95;;;;;;;;;;6286088;28;20041;-59
2023/01/23 02:17:05;;;;;;;54.78;18.60;;;;;;;;;;6294941;28;20048;-57
2023/01/23 02:20:24;;;;;;;50.38;19.02;;;;;;;;;;6295956;28;20054;-57
2023/01/23 02:23:40;;;;;;;51.13;17.77;;;;;;;;;;6294628;28;20049;-57
2023/01/23 02:26:42;;;;;;;50.05;18.92;;;;;;;;;;6294065;28;20120;-55
2023/01/23 02:29:44;;;;;;;47.85;17.73;;;;;;;;;;6295042;28;20064;-55
2023/01/23 02:32:45;;;;;;;50.88;18.45;;;;;;;;;;6284970;28;20174;-57
2023/01/23 02:35:46;;;;;;;45.13;17.92;;;;;;;;;;6277803;28;20047;-57
2023/01/23 02:38:58;;;;;;;43.13;18.30;;;;;;;;;;6291483;28;20044;-58
2023/01/23 02:42:00;;;;;;;43.05;16.50;;;;;;;;;;6287197;28;20041;-56
2023/01/23 02:45:02;;;;;;;39.63;16.40;;;;;;;;;;6286190;28;20496;-57
2023/01/23 02:48:04;;;;;;;43.08;15.68;;;;;;;;;;6293442;28;20177;-55
2023/01/23 02:51:06;;;;;;;43.22;17.98;;;;;;;;;;6294384;28;20510;-63
2023/01/23 02:54:07;;;;;;;49.97;23.30;;;;;;;;;;6294097;28;20451;-54
2023/01/23 02:57:08;;;;;;;53.80;23.42;;;;;;;;;;6285702;28;20361;-59
2023/01/23 03:00:15;;;;;;;51.47;22.98;;;;;;;;;;6294020;28;20132;-57
2023/01/23 03:03:16;;;;;;;47.50;21.52;;;;;;;;;;6286356;28;20044;-61
2023/01/23 03:06:16;;;;;;;46.17;19.45;;;;;;;;;;6281419;28;20361;-64
2023/01/23 03:09:18;;;;;;;46.53;20.13;;;;;;;;;;6272801;28;20740;-57
2023/01/23 03:12:18;;;;;;;50.03;19.63;;;;;;;;;;6290579;28;20124;-62
2023/01/23 03:15:19;;;;;;;50.95;20.20;;;;;;;;;;6293562;28;20377;-59
2023/01/23 03:18:20;;;;;;;49.00;20.35;;;;;;;;;;6292573;28;20093;-59
2023/01/23 03:21:20;;;;;;;59.47;22.83;;;;;;;;;;6294087;28;20559;-59
2023/01/23 03:24:21;;;;;;;56.70;21.83;;;;;;;;;;6281584;28;20500;-65
2023/01/23 03:27:22;;;;;;;53.38;21.92;;;;;;;;;;6284772;28;20052;-64
2023/01/23 03:30:24;;;;;;;55.78;23.20;;;;;;;;;;6284095;28;20052;-58
2023/01/23 03:33:24;;;;;;;49.07;19.83;;;;;;;;;;6284296;28;20036;-59
2023/01/23 03:36:25;;;;;;;45.05;18.08;;;;;;;;;;6275969;28;20136;-62
2023/01/23 03:42:45;;;;;;;50.60;18.92;;;;;;;;;;6270765;28;20047;-57
2023/01/23 03:45:45;;;;;;;53.00;19.48;;;;;;;;;;6265730;28;20056;-57
2023/01/23 03:48:46;;;;;;;61.53;21.75;;;;;;;;;;6266785;28;20045;-55
2023/01/23 03:51:47;;;;;;;59.30;19.77;;;;;;;;;;6267803;28;20080;-58
2023/01/23 03:54:48;;;;;;;59.72;21.77;;;;;;;;;;6266930;28;20508;-56
2023/01/23 03:57:48;;;;;;;67.13;24.58;;;;;;;;;;6266974;28;20462;-56
2023/01/23 04:00:49;;;;;;;64.53;23.90;;;;;;;;;;6266151;28;20770;-58
2023/01/23 04:03:49;;;;;;;66.22;24.58;;;;;;;;;;6284535;28;20052;-58
2023/01/23 04:06:50;;;;;;;71.13;25.05;;;;;;;;;;6260253;28;20045;-58
2023/01/23 04:09:51;;;;;;;65.38;22.23;;;;;;;;;;6269082;28;20056;-56
2023/01/23 04:12:51;;;;;;;64.53;23.20;;;;;;;;;;6268182;28;20427;-57
2023/01/23 04:15:52;;;;;;;71.68;24.10;;;;;;;;;;6264205;28;20045;-58
2023/01/23 04:18:53;;;;;;;68.60;22.13;;;;;;;;;;6292956;28;20060;-55
2023/01/23 04:21:53;;;;;;;71.80;24.52;;;;;;;;;;6272583;28;20053;-60
2023/01/23 04:24:54;;;;;;;68.65;24.02;;;;;;;;;;6266066;28;20056;-59
2023/01/23 04:27:54;;;;;;;72.72;24.35;;;;;;;;;;6266073;28;20036;-57
2023/01/23 04:30:55;;;;;;;73.47;25.27;;;;;;;;;;6264717;28;20488;-56
2023/01/23 04:33:56;;;;;;;72.55;24.38;;;;;;;;;;6268575;28;20052;-58
2023/01/23 04:36:56;;;;;;;71.30;27.25;;;;;;;;;;6265047;28;20040;-56
2023/01/23 04:39:57;;;;;;;75.10;26.70;;;;;;;;;;6281723;28;20055;-57
2023/01/23 04:42:58;;;;;;;89.53;29.25;;;;;;;;;;6279856;28;20497;-56
2023/01/23 04:45:58;;;;;;;81.95;31.63;;;;;;;;;;6261168;28;20048;-56
2023/01/23 04:48:59;;;;;;;90.40;34.97;;;;;;;;;;6265036;28;20168;-55
2023/01/23 04:51:59;;;;;;;97.15;36.33;;;;;;;;;;6290667;28;20063;-56
2023/01/23 04:55:00;;;;;;;90.07;33.45;;;;;;;;;;6268506;28;20675;-56
2023/01/23 04:58:01;;;;;;;94.85;32.25;;;;;;;;;;6260961;28;20044;-56
2023/01/23 05:01:03;;;;;;;92.00;31.27;;;;;;;;;;6264729;28;20060;-55
2023/01/23 05:04:04;;;;;;;85.43;30.25;;;;;;;;;;6259874;28;20555;-56
2023/01/23 05:07:05;;;;;;;93.38;31.83;;;;;;;;;;6261462;28;20041;-56
2023/01/23 05:10:09;;;;;;;102.35;32.70;;;;;;;;;;6263653;28;20052;-57
2023/01/23 05:13:09;;;;;;;95.35;32.15;;;;;;;;;;6265294;28;20049;-57
2023/01/23 05:16:10;;;;;;;98.35;33.15;;;;;;;;;;6265775;28;20045;-58
2023/01/23 05:19:11;;;;;;;96.93;31.83;;;;;;;;;;6281918;28;20118;-55
2023/01/23 05:22:12;;;;;;;88.18;30.58;;;;;;;;;;6270041;28;20462;-56
2023/01/23 05:25:12;;;;;;;93.32;30.65;;;;;;;;;;6263760;28;20098;-56
2023/01/23 05:28:13;;;;;;;81.10;27.85;;;;;;;;;;6265561;28;20083;-55
2023/01/23 05:31:13;;;;;;;83.50;26.73;;;;;;;;;;6276421;28;20116;-60
2023/01/23 05:34:14;;;;;;;84.20;28.27;;;;;;;;;;6266494;28;20037;-55
2023/01/23 05:37:15;;;;;;;81.53;28.85;;;;;;;;;;6266654;28;20404;-58
2023/01/23 05:40:15;;;;;;;83.60;28.58;;;;;;;;;;6288561;28;20085;-58
2023/01/23 05:43:16;;;;;;;83.95;28.17;;;;;;;;;;6278418;28;20086;-60
2023/01/23 05:46:16;;;;;;;81.55;27.92;;;;;;;;;;6279088;28;20044;-57
2023/01/23 05:49:17;;;;;;;93.97;30.23;;;;;;;;;;6285926;28;20044;-58
2023/01/23 05:52:18;;;;;;;89.53;32.78;;;;;;;;;;6284982;28;20500;-55
2023/01/23 05:55:18;;;;;;;84.90;30.52;;;;;;;;;;6265104;28;20472;-59
2023/01/23 05:58:19;;;;;;;95.13;32.63;;;;;;;;;;6263784;28;20056;-60
2023/01/23 06:01:20;;;;;;;92.78;31.30;;;;;;;;;;6262540;28;20049;-59
2023/01/23 06:04:21;;;;;;;96.33;33.57;;;;;;;;;;6265974;28;20131;-56
2023/01/23 06:07:22;;;;;;;84.13;30.67;;;;;;;;;;6266374;28;20423;-59
2023/01/23 06:10:22;;;;;;;95.20;33.17;;;;;;;;;;6265978;28;20056;-58
2023/01/23 06:13:24;;;;;;;90.43;33.00;;;;;;;;;;6271865;28;20094;-57
2023/01/23 06:16:25;;;;;;;96.20;34.78;;;;;;;;;;6274077;28;20052;-56
2023/01/23 06:19:25;;;;;;;100.70;35.75;;;;;;;;;;6288886;28;20554;-57
2023/01/23 06:22:26;;;;;;;96.35;33.58;;;;;;;;;;6293542;28;20097;-58
2023/01/23 06:25:27;;;;;;;107.05;34.03;;;;;;;;;;6281581;28;20084;-58
2023/01/23 06:28:27;;;;;;;113.88;36.70;;;;;;;;;;6293791;28;20049;-58
2023/01/23 06:31:31;;;;;;;110.47;39.03;;;;;;;;;;6289656;28;20075;-59
2023/01/23 06:34:31;;;;;;;112.32;38.25;;;;;;;;;;6293350;28;20049;-58
2023/01/23 06:37:32;;;;;;;132.55;46.55;;;;;;;;;;6293475;28;20147;-58
2023/01/23 06:40:32;;;;;;;150.88;54.28;;;;;;;;;;6268659;28;20056;-63
2023/01/23 06:43:33;;;;;;;137.00;49.83;;;;;;;;;;6267443;28;20496;-59
2023/01/23 06:46:34;;;;;;;127.10;44.53;;;;;;;;;;6265886;28;20059;-58
2023/01/23 06:49:35;;;;;;;114.90;42.58;;;;;;;;;;6265791;28;20076;-58
2023/01/23 06:52:35;;;;;;;101.18;37.15;;;;;;;;;;6281090;28;20060;-58
2023/01/23 06:55:36;;;;;;;108.97;39.08;;;;;;;;;;6286894;28;20052;-59
2023/01/23 06:58:39;;;;;;;105.05;40.83;;;;;;;;;;6265996;28;20570;-59
2023/01/23 07:01:40;;;;;;;104.90;37.05;;;;;;;;;;6262346;28;20058;-58
2023/01/23 07:04:41;;;;;;;100.38;38.13;;;;;;;;;;6267823;28;20049;-59
2023/01/23 07:07:42;;;;;;;96.43;35.72;;;;;;;;;;6268258;28;20611;-58
2023/01/23 07:10:42;;;;;;;92.90;34.92;;;;;;;;;;6267412;28;20083;-58
2023/01/23 07:13:43;;;;;;;99.32;35.05;;;;;;;;;;6276246;28;20132;-61
2023/01/23 07:16:43;;;;;;;95.78;33.25;;;;;;;;;;6264746;28;20053;-59
2023/01/23 07:19:44;;;;;;;107.10;37.88;;;;;;;;;;6270313;28;20087;-59
2023/01/23 07:22:44;;;;;;;108.97;40.67;;;;;;;;;;6266243;28;20515;-59
2023/01/23 07:25:45;;;;;;;115.13;39.15;;;;;;;;;;6265294;28;20044;-58
2023/01/23 07:28:46;;;;;;;116.50;40.38;;;;;;;;;;6266699;28;20049;-58
2023/01/23 07:31:46;;;;;;;109.00;37.75;;;;;;;;;;6265131;28;20052;-58
2023/01/23 07:34:47;;;;;;;96.95;35.15;;;;;;;;;;6268682;28;20045;-59
2023/01/23 07:37:48;;;;;;;95.68;32.17;;;;;;;;;;6260259;28;20056;-57
2023/01/23 07:40:49;;;;;;;93.47;30.95;;;;;;;;;;6265139;28;20408;-58
2023/01/23 07:43:50;;;;;;;87.80;32.55;;;;;;;;;;6263350;28;20055;-59
2023/01/23 07:46:50;;;;;;;91.57;30.75;;;;;;;;;;6269624;28;20048;-58
2023/01/23 07:49:51;;;;;;;87.22;30.20;;;;;;;;;;6268114;28;20517;-61
2023/01/23 07:52:51;;;;;;;92.35;31.63;;;;;;;;;;6269705;28;20049;-59
2023/01/23 07:55:52;;;;;;;87.10;29.77;;;;;;;;;;6266510;28;20131;-58
2023/01/23 07:58:53;;;;;;;85.88;32.17;;;;;;;;;;6262772;28;20049;-58
2023/01/23 08:01:53;;;;;;;87.20;31.35;;;;;;;;;;6266636;28;20056;-58
2023/01/23 08:04:54;;;;;;;86.40;29.35;;;;;;;;;;6263313;28;20048;-58
2023/01/23 08:07:54;;;;;;;83.55;30.25;;;;;;;;;;6266206;28;20099;-58
2023/01/23 08:10:55;;;;;;;85.07;29.83;;;;;;;;;;6269583;28;20438;-58
2023/01/23 08:13:56;;;;;;;98.63;31.70;;;;;;;;;;6271941;28;20048;-58
2023/01/23 08:16:56;;;;;;;88.18;31.90;;;;;;;;;;6270462;28;20048;-59
2023/01/23 08:19:57;;;;;;;83.82;31.15;;;;;;;;;;6264539;28;20053;-59
2023/01/23 08:22:59;;;;;;;96.68;34.83;;;;;;;;;;6263801;28;21046;-59
2023/01/23 08:26:03;;;;;;;90.65;33.40;;;;;;;;;;6267591;28;20052;-57
2023/01/23 08:29:04;;;;;;;102.38;34.92;;;;;;;;;;6269708;28;20110;-59
2023/01/23 08:32:05;;;;;;;95.43;33.78;;;;;;;;;;6262405;28;20563;-58
2023/01/23 08:35:06;;;;;;;101.40;33.25;;;;;;;;;;6263917;28;20060;-58
2023/01/23 08:38:09;;;;;;;133.60;45.47;;;;;;;;;;6260513;28;20041;-59
2023/01/23 08:41:10;;;;;;;123.30;41.30;;;;;;;;;;6267334;28;20048;-58
2023/01/23 08:44:12;;;;;;;98.82;36.17;;;;;;;;;;6263651;28;20535;-58
2023/01/23 08:47:12;;;;;;;93.57;32.92;;;;;;;;;;6273731;28;20041;-59
2023/01/23 08:50:13;;;;;;;85.18;32.10;;;;;;;;;;6266610;28;20054;-59
2023/01/23 08:53:14;;;;;;;74.95;26.52;;;;;;;;;;6272908;28;20052;-59
2023/01/23 08:56:18;;;;;;;87.97;30.67;;;;;;;;;;6266887;28;20045;-59
2023/01/23 08:59:18;;;;;;;101.93;32.65;;;;;;;;;;6274104;28;20388;-58
2023/01/23 09:02:20;;;;;;;86.43;29.75;;;;;;;;;;6264820;28;20633;-58
2023/01/23 09:05:21;;;;;;;78.05;28.65;;;;;;;;;;6272399;28;20068;-59
2023/01/23 09:08:22;;;;;;;81.30;27.38;;;;;;;;;;6284371;28;20496;-58
2023/01/23 09:11:22;;;;;;;68.78;23.95;;;;;;;;;;6285688;28;20055;-61
2023/01/23 09:14:23;;;;;;;80.32;27.35;;;;;;;;;;6274696;28;20059;-64
2023/01/23 09:17:24;;;;;;;88.05;31.30;;;;;;;;;;6272708;28;20040;-62
2023/01/23 09:20:25;;;;;;;85.90;31.23;;;;;;;;;;6282159;28;20040;-60
2023/01/23 09:23:26;;;;;;;85.10;30.00;;;;;;;;;;6277079;28;20044;-59
2023/01/23 09:26:27;;;;;;;87.38;31.15;;;;;;;;;;6272928;28;20393;-58
2023/01/23 09:29:28;;;;;;;88.25;31.65;;;;;;;;;;6265525;28;20037;-59
2023/01/23 09:32:28;;;;;;;89.53;31.15;;;;;;;;;;6264458;28;20055;-60
2023/01/23 09:35:29;;;;;;;83.93;31.48;;;;;;;;;;6268993;28;20048;-58
2023/01/23 09:38:32;;;;;;;81.78;30.58;;;;;;;;;;6261596;28;20063;-58
2023/01/23 09:41:33;;;;;;;;;;;;;;;;;;6264532;28;20052;-59
2023/01/23 09:54:18;;;;;;;81.32;28.55;;;;;;;;;;6267577;28;20061;-62
2023/01/23 09:57:29;;;;;;;93.65;32.63;;;;;;;;;;6288124;28;20153;-61
2023/01/23 10:00:32;;;;;;;95.45;34.33;;;;;;;;;;6286554;28;20044;-62
2023/01/23 10:03:33;;;;;;;98.07;36.30;;;;;;;;;;6298916;28;20048;-61
2023/01/23 10:07:12;;;;;;;81.45;29.05;;;;;;;;;;6300003;28;20048;-62
2023/01/23 10:10:31;;;;;;;76.15;28.33;;;;;;;;;;6293744;28;20058;-61
2023/01/23 10:13:47;;;;;;;82.00;27.50;;;;;;;;;;6289836;28;20806;-62
2023/01/23 10:17:18;;;;;;;80.22;29.35;;;;;;;;;;6292179;28;20051;-62
2023/01/23 10:21:00;;;;;;;78.45;30.60;;;;;;;;;;6293731;28;20052;-59
2023/01/23 10:24:25;;;;;;;82.13;32.57;;;;;;;;;;6275695;28;20047;-62
2023/01/23 10:27:42;;;;;;;81.32;31.95;;;;;;;;;;6307509;28;20414;-61
2023/01/23 10:30:48;;;;;;;73.80;31.80;;;;;;;;;;6289678;28;20101;-63
2023/01/23 10:33:57;;;;;;;84.45;36.42;;;;;;;;;;6286744;28;20410;-61
2023/01/23 10:37:20;;;;;;;75.85;29.83;;;;;;;;;;6291752;28;20048;-61
2023/01/23 10:43:45;;;;;;;67.22;23.67;;;;;;;;;;6292382;28;20048;-61
2023/01/23 10:46:53;;;;;;;76.20;28.98;;;;;;;;;;6288842;28;20459;-61
2023/01/23 10:49:53;;;;;;;54.65;24.35;;;;;;;;;;6290864;28;20052;-64
2023/01/23 10:53:06;;;;;;;61.53;27.92;;;;;;;;;;6294325;28;20114;-61
2023/01/23 10:56:13;;;;;;;;;;;;;;;;;;6289669;28;20048;-61
2023/01/23 10:59:20;;;;;;;45.70;19.25;;;;;;;;;;6296082;28;19931;-61
2023/01/23 11:02:28;;;;;;;46.67;18.20;;;;;;;;;;6290603;28;20529;-62
2023/01/23 11:05:39;;;;;;;52.72;20.73;;;;;;;;;;6290125;28;20040;-61
2023/01/23 11:08:50;;;;;;;42.67;16.48;;;;;;;;;;6291823;28;20040;-61
2023/01/23 11:12:15;;;;;;;37.35;16.25;;;;;;;;;;6291921;28;20410;-62
2023/01/23 11:15:20;;;;;;;35.92;15.05;;;;;;;;;;6290985;28;20219;-61
2023/01/23 11:18:38;;;;;;;40.80;16.83;;;;;;;;;;6294371;28;20043;-61
2023/01/23 11:21:48;;;;;;;70.25;26.63;;;;;;;;;;6291636;28;20044;-61
2023/01/23 11:24:49;;;;;;;57.83;22.25;;;;;;;;;;6291958;28;20601;-61
2023/01/23 11:28:15;;;;;;;46.63;20.60;;;;;;;;;;6287093;28;20510;-61
2023/01/23 11:31:19;;;;;;;42.15;16.63;;;;;;;;;;6289867;28;20048;-61
2023/01/23 11:34:24;;;;;;;43.17;17.20;;;;;;;;;;6290098;28;20052;-61
2023/01/23 11:37:33;;;;;;;40.15;17.08;;;;;;;;;;6277935;28;20036;-61
2023/01/23 11:40:35;;;;;;;45.78;19.98;;;;;;;;;;6309748;28;20139;-61
2023/01/23 11:43:35;;;;;;;52.63;22.70;;;;;;;;;;6288995;28;20059;-62
2023/01/23 11:46:54;;;;;;;55.67;22.73;;;;;;;;;;6290588;28;20048;-61
2023/01/23 11:50:26;;;;;;;58.40;22.45;;;;;;;;;;6293647;28;20482;-61
2023/01/23 11:53:42;;;;;;;62.23;22.33;;;;;;;;;;6291414;28;20052;-62
2023/01/23 11:56:54;;;;;;;53.85;22.95;;;;;;;;;;6307227;28;20049;-61
2023/01/23 12:00:33;;;;;;;53.85;22.42;;;;;;;;;;6290895;28;20052;-61
2023/01/23 12:03:39;;;;;;;62.42;24.85;;;;;;;;;;6288389;28;20139;-61
2023/01/23 12:07:08;;;;;;;55.75;21.52;;;;;;;;;;6301548;28;20045;-61
2023/01/23 12:10:27;;;;;;;54.67;21.08;;;;;;;;;;6305673;28;20390;-65
2023/01/23 12:13:33;;;;;;;53.17;22.00;;;;;;;;;;6306701;28;20047;-62
2023/01/23 12:16:55;;;;;;;58.17;22.67;;;;;;;;;;6308656;28;20507;-66
2023/01/23 12:20:31;;;;;;;60.67;23.20;;;;;;;;;;6313789;28;20048;-62
2023/01/23 12:23:34;;;;;;;63.47;23.98;;;;;;;;;;6310939;28;20048;-63
2023/01/23 12:26:44;;;;;;;70.20;25.40;;;;;;;;;;6311289;28;20055;-65
2023/01/23 12:30:26;;;;;;;70.88;26.55;;;;;;;;;;6274213;28;20055;-62
2023/01/23 12:33:40;;;;;;;85.78;30.92;;;;;;;;;;6279696;28;20048;-64
2023/01/23 12:37:11;;;;;;;83.60;33.00;;;;;;;;;;6308326;28;20572;-65
2023/01/23 12:40:21;;;;;;;88.85;33.35;;;;;;;;;;6301189;28;20147;-65
2023/01/23 12:43:36;;;;;;;92.68;34.15;;;;;;;;;;6274808;28;20052;-61
2023/01/23 12:47:00;;;;;;;78.35;30.38;;;;;;;;;;6280590;28;20055;-64
2023/01/23 12:50:21;;;;;;;83.47;33.40;;;;;;;;;;6277727;28;20056;-63
2023/01/23 12:53:22;;;;;;;78.97;29.85;;;;;;;;;;6278317;28;20410;-64
2023/01/23 12:56:32;;;;;;;77.38;30.15;;;;;;;;;;6284809;28;20048;-61
2023/01/23 12:59:53;;;;;;;72.50;28.15;;;;;;;;;;6283031;28;20516;-61
2023/01/23 13:02:53;;;;;;;69.88;25.92;;;;;;;;;;6282753;28;20047;-64
2023/01/23 13:06:00;;;;;;;65.55;24.80;;;;;;;;;;6280867;28;20049;-61
2023/01/23 13:09:18;;;;;;;74.65;26.83;;;;;;;;;;6285698;28;20098;-61
2023/01/23 13:12:20;;;;;;;71.85;26.98;;;;;;;;;;6282878;28;20051;-62
2023/01/23 13:15:27;;;;;;;;;;;;;;;;;;6279075;28;20109;-65
2023/01/23 13:18:28;;;;;;;78.00;27.70;;;;;;;;;;6286264;28;19967;-62
2023/01/23 13:25:09;;;;;;;64.30;23.15;;;;;;;;;;6271441;28;20044;-61
2023/01/23 13:28:39;;;;;;;51.38;20.13;;;;;;;;;;6268712;28;20041;-61
2023/01/23 13:31:45;;;;;;;47.90;18.95;;;;;;;;;;6272279;28;20048;-60
2023/01/23 13:34:46;;;;;;;42.33;17.10;;;;;;;;;;6278577;28;20182;-61
2023/01/23 13:37:50;;;;;;;37.75;14.23;;;;;;;;;;6281184;28;20048;-61
2023/01/23 13:41:03;;;;;;;38.67;15.52;;;;;;;;;;6279644;28;20044;-61
2023/01/23 13:44:36;;;;;;;36.22;15.35;;;;;;;;;;6279667;28;20045;-61
2023/01/23 13:51:20;;;;;;;40.53;16.40;;;;;;;;;;6278414;28;20151;-61
2023/01/23 13:57:47;;;;;;;49.95;20.27;;;;;;;;;;6282396;28;20048;-61
2023/01/23 14:05:11;;;;;;;71.07;27.42;;;;;;;;;;6280531;28;20532;-61
2023/01/23 14:07:45;;;;;;;60.42;21.15;;;;;;;;;;6281389;28;20036;-61
2023/01/23 14:10:47;;;;;;;70.63;26.35;;;;;;;;;;6277860;28;20055;-61
2023/01/23 14:13:50;;;;;;;67.40;26.88;;;;;;;;;;6281929;28;20109;-60
2023/01/23 14:16:51;;;;;;;75.88;27.52;;;;;;;;;;6277368;28;20051;-61
2023/01/23 14:19:59;;;;;;;70.65;25.73;;;;;;;;;;6285937;28;20033;-62
2023/01/23 14:22:59;;;;;;;66.00;24.50;;;;;;;;;;6280807;28;20044;-61
2023/01/23 14:26:02;;;;;;;76.40;28.17;;;;;;;;;;6261732;28;20502;-61
2023/01/23 14:29:21;;;;;;;70.53;27.25;;;;;;;;;;6279460;28;20045;-61
2023/01/23 14:32:24;;;;;;;75.30;28.80;;;;;;;;;;6279272;28;20047;-60
2023/01/23 14:35:27;;;;;;;82.75;31.33;;;;;;;;;;6281279;28;20090;-61
2023/01/23 14:38:32;;;;;;;76.88;27.48;;;;;;;;;;6275006;28;20048;-61
2023/01/23 14:41:38;;;;;;;76.97;27.67;;;;;;;;;;6285511;28;20054;-60
2023/01/23 14:44:43;;;;;;;81.35;28.70;;;;;;;;;;6273892;28;20056;-60
2023/01/23 14:47:44;;;;;;;84.82;28.63;;;;;;;;;;6273287;28;20084;-61
2023/01/23 14:50:45;;;;;;;79.32;28.52;;;;;;;;;;6275329;28;20037;-60
2023/01/23 14:54:00;;;;;;;91.22;30.35;;;;;;;;;;6273442;28;20122;-60
2023/01/23 14:57:04;;;;;;;83.10;30.83;;;;;;;;;;6277644;28;20479;-60
2023/01/23 15:00:05;;;;;;;100.97;30.52;;;;;;;;;;6283915;28;20049;-60
2023/01/23 15:03:10;;;;;;;94.53;32.92;;;;;;;;;;6274984;28;20060;-60
2023/01/23 15:06:18;;;;;;;84.82;29.58;;;;;;;;;;6273668;28;20407;-60
2023/01/23 15:09:26;;;;;;;88.30;31.45;;;;;;;;;;6280616;28;20481;-60
2023/01/23 15:12:26;;;;;;;87.43;30.15;;;;;;;;;;6271346;28;20048;-60
2023/01/23 15:15:28;;;;;;;65.82;25.70;;;;;;;;;;6274103;28;20059;-61
2023/01/23 15:18:32;;;;;;;69.85;25.00;;;;;;;;;;6274427;28;20076;-60
2023/01/23 15:21:35;;;;;;;79.13;27.85;;;;;;;;;;6273915;28;20048;-60
2023/01/23 15:24:35;;;;;;;72.97;26.15;;;;;;;;;;6277554;28;20056;-60
2023/01/23 15:27:36;;;;;;;72.75;27.38;;;;;;;;;;6274081;28;20055;-60
2023/01/23 15:30:47;;;;;;;98.78;33.75;;;;;;;;;;6276000;28;20117;-61
2023/01/23 15:33:48;;;;;;;68.20;26.15;;;;;;;;;;6276996;28;20079;-61
2023/01/23 15:37:12;;;;;;;64.53;23.95;;;;;;;;;;6274438;28;20248;-59
2023/01/23 15:40:15;;;;;;;66.10;24.70;;;;;;;;;;6284486;28;20053;-60
2023/01/23 15:43:18;;;;;;;63.90;22.90;;;;;;;;;;6275687;28;20098;-61
2023/01/23 15:46:18;;;;;;;61.33;22.45;;;;;;;;;;6273414;28;20050;-61
2023/01/23 15:49:19;;;;;;;73.93;23.55;;;;;;;;;;6273924;28;20049;-61
2023/01/23 15:52:25;;;;;;;66.13;23.67;;;;;;;;;;6272919;28;20041;-59
2023/01/23 15:55:27;;;;;;;69.88;24.10;;;;;;;;;;6276478;28;20686;-59
2023/01/23 15:58:28;;;;;;;62.28;22.75;;;;;;;;;;6278060;28;20036;-58
2023/01/23 16:01:28;;;;;;;57.90;21.58;;;;;;;;;;6273763;28;20418;-58
2023/01/23 16:04:29;;;;;;;72.28;25.15;;;;;;;;;;6273604;28;20045;-57
2023/01/23 16:07:35;;;;;;;74.07;25.40;;;;;;;;;;6274658;28;20375;-60
2023/01/23 16:10:37;;;;;;;69.15;25.48;;;;;;;;;;6251826;28;20721;-58
2023/01/23 16:13:37;;;;;;;71.55;27.17;;;;;;;;;;6274800;28;20715;-58
2023/01/23 16:16:38;;;;;;;77.20;29.58;;;;;;;;;;6275326;28;20064;-59
2023/01/23 16:19:39;;;;;;;78.00;28.83;;;;;;;;;;6274994;28;20055;-58
2023/01/23 16:22:41;;;;;;;100.57;35.35;;;;;;;;;;6272528;28;20040;-58
2023/01/23 16:25:43;;;;;;;108.85;37.97;;;;;;;;;;6268286;28;20081;-57
2023/01/23 16:28:44;;;;;;;81.13;30.70;;;;;;;;;;6274051;28;20049;-59
2023/01/23 16:31:44;;;;;;;77.50;28.08;;;;;;;;;;6272545;28;20049;-58
2023/01/23 16:34:45;;;;;;;69.93;26.50;;;;;;;;;;6271289;28;20221;-59
2023/01/23 16:37:48;;;;;;;66.28;24.88;;;;;;;;;;6274763;28;20041;-57
2023/01/23 16:40:51;;;;;;;63.20;23.10;;;;;;;;;;6278365;28;20404;-58
2023/01/23 16:43:52;;;;;;;64.10;23.10;;;;;;;;;;6294238;28;20133;-57
2023/01/23 16:46:53;;;;;;;55.80;21.30;;;;;;;;;;6281630;28;20484;-58
2023/01/23 16:49:53;;;;;;;60.33;20.63;;;;;;;;;;6285609;28;20045;-60
2023/01/23 16:53:00;;;;;;;56.17;21.52;;;;;;;;;;6282542;28;20040;-61
2023/01/23 16:56:01;;;;;;;59.17;21.63;;;;;;;;;;6282160;28;20059;-57
2023/01/23 16:59:04;;;;;;;56.85;21.40;;;;;;;;;;6283413;28;20048;-60
2023/01/23 17:02:41;;;;;;;60.45;19.80;;;;;;;;;;6277783;28;20053;-61
2023/01/23 17:05:41;;;;;;;58.45;21.85;;;;;;;;;;6212635;28;20479;-63
2023/01/23 17:08:42;;;;;;;57.17;22.02;;;;;;;;;;6288399;28;20128;-61
2023/01/23 17:11:51;;;;;;;62.00;21.73;;;;;;;;;;6284705;28;20072;-63
2023/01/23 17:14:52;;;;;;;60.50;21.60;;;;;;;;;;6288957;28;20036;-61
2023/01/23 17:17:58;;;;;;;58.20;21.83;;;;;;;;;;6284138;28;20480;-61
2023/01/23 17:20:59;;;;;;;64.45;23.30;;;;;;;;;;6284837;28;20045;-58
2023/01/23 17:24:00;;;;;;;58.42;21.55;;;;;;;;;;6277607;28;20075;-54
2023/01/23 17:27:00;;;;;;;63.30;22.45;;;;;;;;;;6286757;28;20483;-58
2023/01/23 17:30:01;;;;;;;62.38;21.90;;;;;;;;;;6287816;28;20053;-62
2023/01/23 17:33:02;;;;;;;66.93;25.02;;;;;;;;;;6267452;28;20040;-63
2023/01/23 17:36:03;;;;;;;63.47;22.25;;;;;;;;;;6284492;28;20050;-58
2023/01/23 17:39:06;;;;;;;72.72;24.60;;;;;;;;;;6280917;28;20502;-62
2023/01/23 17:42:12;;;;;;;64.70;21.55;;;;;;;;;;6276617;28;20058;-58
2023/01/23 17:45:17;;;;;;;68.28;24.00;;;;;;;;;;6282125;28;20044;-58
2023/01/23 17:48:25;;;;;;;64.70;24.08;;;;;;;;;;6279735;28;20418;-57
2023/01/23 17:51:26;;;;;;;60.83;20.92;;;;;;;;;;6274151;28;20208;-63
2023/01/23 17:54:27;;;;;;;66.97;21.58;;;;;;;;;;6281136;28;20052;-64
2023/01/23 17:57:27;;;;;;;63.28;22.10;;;;;;;;;;6277671;28;20044;-63
2023/01/23 18:00:28;;;;;;;55.75;20.88;;;;;;;;;;6278160;28;20083;-59
2023/01/23 18:03:29;;;;;;;63.40;23.55;;;;;;;;;;6277057;28;20048;-60
2023/01/23 18:06:30;;;;;;;59.47;21.05;;;;;;;;;;6279555;28;20492;-56
2023/01/23 18:09:33;;;;;;;65.85;22.95;;;;;;;;;;6281114;28;20057;-55
2023/01/23 18:13:06;;;;;;;63.63;21.15;;;;;;;;;;6275923;28;20067;-54
2023/01/23 18:16:13;;;;;;;65.05;22.45;;;;;;;;;;6270804;28;20159;-52
2023/01/23 18:19:19;;;;;;;70.85;22.70;;;;;;;;;;6282621;28;20044;-62
2023/01/23 18:22:20;;;;;;;69.88;24.30;;;;;;;;;;6282298;28;20048;-64